Time;durP1;ratioP1;P1;durP2;ratioP2;P2;SDS_P1;SDS_P2;PMS_P1;PMS_P2;Temp;Humidity;BMP_temperature;BMP_pressure;BME280_temperature;BME280_humidity;BME280_pressure;Samples;Min_cycle;Max_cycle;Signal;HPM_P1;HPM_P2
2022/12/03 00:02:19;;;;;;;26.33;12.40;;;;;;;3.69;85.93;100170.25;4962829;28;21221;-89
2022/12/03 00:04:46;;;;;;;26.48;11.90;;;;;;;3.71;85.87;100170.16;4975306;28;20405;-89
2022/12/03 00:07:13;;;;;;;36.60;12.93;;;;;;;3.70;85.74;100169.31;4963403;28;20046;-88
2022/12/03 00:09:40;;;;;;;29.33;11.80;;;;;;;3.64;85.98;100179.31;4976688;28;20042;-88
2022/12/03 00:12:07;;;;;;;31.98;13.40;;;;;;;3.71;85.61;100172.78;4949429;28;20089;-88
2022/12/03 00:14:34;;;;;;;34.17;13.05;;;;;;;3.70;85.77;100171.09;4976717;28;20504;-88
2022/12/03 00:17:06;;;;;;;24.23;11.55;;;;;;;3.67;86.49;100179.16;4991802;28;20045;-88
2022/12/03 00:19:33;;;;;;;28.00;13.15;;;;;;;3.67;86.26;100174.75;4975596;28;20042;-88
2022/12/03 00:22:00;;;;;;;29.45;12.93;;;;;;;3.64;86.02;100174.06;4963452;28;20085;-89
2022/12/03 00:24:37;;;;;;;30.17;13.77;;;;;;;3.65;86.00;100176.59;4967146;28;20116;-89
2022/12/03 00:27:04;;;;;;;35.05;14.50;;;;;;;3.69;85.76;100177.28;4955340;28;20049;-88
2022/12/03 00:29:31;;;;;;;28.77;12.60;;;;;;;3.68;85.90;100173.78;4971259;28;20069;-88
2022/12/03 00:31:58;;;;;;;30.25;12.98;;;;;;;3.62;86.21;100174.13;4952409;28;20046;-88
2022/12/03 00:34:24;;;;;;;31.13;14.05;;;;;;;3.62;85.79;100174.13;4957220;28;20359;-88
2022/12/03 00:36:51;;;;;;;31.17;14.23;;;;;;;3.57;85.79;100180.59;4951218;28;20050;-88
2022/12/03 00:39:18;;;;;;;29.35;13.02;;;;;;;3.58;85.80;100175.22;4983281;28;20046;-88
2022/12/03 00:41:44;;;;;;;33.72;13.82;;;;;;;3.57;85.81;100184.03;4972996;28;20054;-89
2022/12/03 00:44:11;;;;;;;31.98;13.52;;;;;;;3.59;86.28;100181.34;4974258;28;20050;-88
2022/12/03 00:46:38;;;;;;;29.33;13.02;;;;;;;3.58;86.40;100174.38;4952932;28;20047;-88
2022/12/03 00:49:05;;;;;;;32.53;13.23;;;;;;;3.63;86.26;100177.59;4969129;28;20062;-88
2022/12/03 00:51:34;;;;;;;32.35;13.27;;;;;;;3.67;85.64;100177.38;4952341;28;20409;-89
2022/12/03 00:54:01;;;;;;;32.15;13.52;;;;;;;3.65;85.95;100181.84;4961610;28;20042;-89
2022/12/03 00:56:28;;;;;;;33.08;13.05;;;;;;;3.67;85.47;100182.63;4970732;28;20401;-89
2022/12/03 00:58:55;;;;;;;31.08;12.98;;;;;;;3.65;85.91;100189.72;4963348;28;20065;-89
2022/12/03 01:01:22;;;;;;;30.20;13.02;;;;;;;3.67;85.09;100181.78;4936310;28;20121;-89
2022/12/03 01:03:49;;;;;;;27.10;12.68;;;;;;;3.64;85.86;100179.31;4935584;28;20035;-89
2022/12/03 01:06:16;;;;;;;30.13;13.63;;;;;;;3.63;86.14;100190.75;4943529;28;20116;-89
2022/12/03 01:08:42;;;;;;;29.75;13.45;;;;;;;3.57;86.06;100181.41;4959118;28;20460;-89
2022/12/03 01:11:36;;;;;;;28.52;13.55;;;;;;;3.57;85.82;100186.66;4958031;28;20042;-88
2022/12/03 01:13:56;;;;;;;32.30;13.68;;;;;;;3.61;85.91;100177.72;4992182;28;20437;-90
2022/12/03 01:16:23;;;;;;;29.42;13.07;;;;;;;3.57;86.26;100183.22;4953165;28;20042;-89
2022/12/03 01:18:51;;;;;;;33.97;13.10;;;;;;;3.64;85.85;100181.94;4938298;28;20051;-89
2022/12/03 01:21:18;;;;;;;31.08;13.93;;;;;;;3.65;86.00;100181.84;4957782;28;20509;-88
2022/12/03 01:23:45;;;;;;;34.25;13.98;;;;;;;3.65;85.74;100179.22;4939969;28;20061;-89
2022/12/03 01:26:12;;;;;;;31.67;12.80;;;;;;;3.64;85.79;100182.78;4953806;28;20532;-88
2022/12/03 01:28:40;;;;;;;32.30;13.88;;;;;;;3.66;85.53;100180.94;4953484;28;20546;-89
2022/12/03 01:33:53;;;;;;;33.58;14.23;;;;;;;3.65;84.72;100181.00;4952832;28;20046;-89
2022/12/03 01:36:20;;;;;;;33.63;13.68;;;;;;;3.66;84.78;100185.31;4972849;28;20051;-89
2022/12/03 01:38:50;;;;;;;36.13;14.13;;;;;;;3.66;85.12;100186.19;4960494;28;20050;-89
2022/12/03 01:41:18;;;;;;;32.33;14.70;;;;;;;3.65;85.44;100188.88;4950429;28;20034;-89
2022/12/03 01:43:45;;;;;;;34.45;14.43;;;;;;;3.66;85.30;100183.56;4966292;28;20050;-89
2022/12/03 01:46:15;;;;;;;32.28;14.23;;;;;;;3.64;85.17;100192.44;4959380;28;20069;-89
2022/12/03 01:48:42;;;;;;;33.63;13.60;;;;;;;3.63;85.35;100194.22;4935207;28;20050;-88
2022/12/03 01:51:09;;;;;;;32.75;15.32;;;;;;;3.65;85.81;100196.75;4949353;28;20128;-88
2022/12/03 01:53:36;;;;;;;34.05;14.40;;;;;;;3.66;85.36;100198.44;4972178;28;20047;-89
2022/12/03 01:56:04;;;;;;;33.03;13.85;;;;;;;3.71;84.91;100185.91;4953536;28;20088;-89
2022/12/03 01:58:31;;;;;;;34.72;13.77;;;;;;;3.72;85.15;100192.88;4939144;28;20126;-88
2022/12/03 02:01:01;;;;;;;32.47;14.68;;;;;;;3.69;85.15;100201.78;4955864;28;20460;-89
2022/12/03 02:03:28;;;;;;;39.17;15.95;;;;;;;3.67;85.18;100202.78;4953336;28;20042;-89
2022/12/03 02:05:55;;;;;;;34.60;14.48;;;;;;;3.68;84.91;100205.31;4949148;28;20459;-89
2022/12/03 02:08:27;;;;;;;30.20;12.70;;;;;;;3.66;84.46;100194.06;4950002;28;20124;-89
2022/12/03 02:10:53;;;;;;;37.70;16.00;;;;;;;3.70;85.03;100192.94;4962992;28;20096;-88
2022/12/03 02:13:20;;;;;;;39.70;15.63;;;;;;;3.73;84.09;100194.56;4952866;28;20073;-89
2022/12/03 02:15:47;;;;;;;36.20;15.00;;;;;;;3.69;84.27;100200.94;4958422;28;20429;-88
2022/12/03 02:18:14;;;;;;;33.85;14.52;;;;;;;3.68;84.20;100192.19;4977081;28;20049;-88
2022/12/03 02:21:03;;;;;;;33.65;14.60;;;;;;;3.61;84.31;100198.72;4954741;28;20046;-88
2022/12/03 02:23:35;;;;;;;33.25;15.02;;;;;;;3.66;84.88;100190.56;4918056;28;20050;-88
2022/12/03 02:26:02;;;;;;;31.73;14.52;;;;;;;3.65;84.34;100196.75;4953482;28;20414;-89
2022/12/03 02:28:29;;;;;;;33.83;13.98;;;;;;;3.65;84.42;100197.59;4954691;28;20051;-88
2022/12/03 02:30:55;;;;;;;29.95;14.07;;;;;;;3.68;84.27;100191.34;4941887;28;20133;-88
2022/12/03 02:33:22;;;;;;;38.85;16.02;;;;;;;3.68;83.72;100193.97;4949904;28;20613;-88
2022/12/03 02:35:58;;;;;;;32.42;13.57;;;;;;;3.62;83.90;100195.16;4954563;28;20125;-88
2022/12/03 02:38:31;;;;;;;35.55;14.20;;;;;;;3.60;83.88;100189.13;4926835;28;20042;-89
2022/12/03 02:41:02;;;;;;;34.22;14.75;;;;;;;3.55;84.03;100192.94;4961336;28;20042;-88
2022/12/03 02:43:29;;;;;;;36.60;14.82;;;;;;;3.60;83.73;100196.16;4971719;28;20134;-88
2022/12/03 02:45:58;;;;;;;36.65;13.88;;;;;;;3.59;83.90;100190.06;4962628;28;20049;-88
2022/12/03 02:48:28;;;;;;;37.22;15.65;;;;;;;3.62;84.32;100195.16;4967241;28;20058;-90
2022/12/03 02:50:58;;;;;;;36.25;14.00;;;;;;;3.64;84.53;100192.44;4937547;28;20053;-88
2022/12/03 02:53:35;;;;;;;33.95;15.20;;;;;;;3.58;84.03;100192.75;4967740;28;20054;-89
2022/12/03 02:56:02;;;;;;;25.83;11.95;;;;;;;3.63;84.23;100191.56;4950168;28;20058;-89
2022/12/03 02:58:30;;;;;;;31.73;13.88;;;;;;;3.60;84.07;100185.66;4945714;28;20477;-90
2022/12/03 03:00:58;;;;;;;36.80;14.93;;;;;;;3.44;84.54;100188.25;4958514;28;20046;-88
2022/12/03 03:03:26;;;;;;;39.85;15.38;;;;;;;3.53;84.59;100184.28;4976066;28;20046;-89
2022/12/03 03:05:55;;;;;;;37.38;14.73;;;;;;;3.45;84.47;100182.06;4950514;28;20054;-88
2022/12/03 03:08:23;;;;;;;40.38;16.63;;;;;;;3.50;84.43;100189.72;4966142;28;20540;-88
2022/12/03 03:10:50;;;;;;;40.28;15.25;;;;;;;3.47;84.45;100188.09;4951426;28;20042;-89
2022/12/03 03:13:18;;;;;;;38.92;16.58;;;;;;;3.42;84.60;100190.97;4968710;28;20042;-90
2022/12/03 03:15:45;;;;;;;37.95;14.82;;;;;;;3.39;83.71;100195.53;4957199;28;20456;-89
2022/12/03 03:18:13;;;;;;;39.03;15.05;;;;;;;3.52;83.71;100193.09;4971665;28;20410;-89
2022/12/03 03:20:40;;;;;;;42.20;15.60;;;;;;;3.43;83.89;100187.41;4943821;28;20086;-89
2022/12/03 03:23:09;;;;;;;34.08;14.73;;;;;;;3.37;84.23;100192.13;4959488;28;20042;-89
2022/12/03 03:25:37;;;;;;;38.00;15.45;;;;;;;3.36;84.25;100182.56;4988264;28;20482;-88
2022/12/03 03:28:05;;;;;;;38.90;16.20;;;;;;;3.45;84.19;100189.94;4940996;28;20053;-89
2022/12/03 03:30:32;;;;;;;36.20;14.60;;;;;;;3.39;84.37;100185.03;4942962;28;20474;-89
2022/12/03 03:32:59;;;;;;;36.63;15.05;;;;;;;3.38;84.54;100193.81;4947745;28;20081;-89
2022/12/03 03:35:26;;;;;;;38.30;16.17;;;;;;;3.33;84.15;100185.34;4961709;28;20395;-89
2022/12/03 03:37:53;;;;;;;38.10;14.60;;;;;;;3.33;84.18;100183.56;4924135;28;20050;-89
2022/12/03 03:40:20;;;;;;;39.30;15.07;;;;;;;3.27;84.72;100189.16;4964704;28;20517;-90
2022/12/03 03:42:47;;;;;;;38.72;15.52;;;;;;;3.31;84.27;100187.19;4959127;28;20046;-89
2022/12/03 03:45:15;;;;;;;40.40;14.93;;;;;;;3.31;84.44;100189.81;4952154;28;20057;-90
2022/12/03 03:47:42;;;;;;;40.67;14.68;;;;;;;3.29;84.38;100183.84;4954486;28;20050;-90
2022/12/03 03:50:10;;;;;;;40.25;15.52;;;;;;;3.29;84.96;100186.44;4973583;28;20058;-89
2022/12/03 03:52:37;;;;;;;39.78;14.75;;;;;;;3.29;84.68;100186.44;4970012;28;20058;-89
2022/12/03 03:55:05;;;;;;;41.80;15.60;;;;;;;3.34;84.55;100180.03;4959418;28;20634;-89
2022/12/03 03:57:31;;;;;;;36.38;15.57;;;;;;;3.36;84.42;100179.91;4976885;28;20046;-89
2022/12/03 03:59:58;;;;;;;43.58;16.65;;;;;;;3.20;84.42;100175.47;4957947;28;20065;-89
2022/12/03 04:02:26;;;;;;;41.90;15.60;;;;;;;3.23;84.60;100177.97;4947255;28;20130;-88
2022/12/03 04:04:53;;;;;;;43.88;16.35;;;;;;;3.26;84.33;100177.81;4953342;28;20050;-89
2022/12/03 04:07:20;;;;;;;41.38;15.60;;;;;;;3.24;84.35;100173.56;4976317;28;20042;-90
2022/12/03 04:09:46;;;;;;;43.15;16.08;;;;;;;3.25;84.34;100176.09;4985286;28;20121;-89
2022/12/03 04:15:15;;;;;;;41.10;15.95;;;;;;;3.25;84.28;100177.88;4868260;29;20059;-90
2022/12/03 04:17:42;;;;;;;42.22;16.85;;;;;;;3.31;84.14;100171.44;4958002;28;20391;-90
2022/12/03 04:20:09;;;;;;;44.78;16.17;;;;;;;3.26;84.19;100169.94;4943106;28;20375;-89
2022/12/03 04:22:39;;;;;;;41.88;16.63;;;;;;;3.33;84.15;100166.97;4968352;28;20038;-88
2022/12/03 04:30:40;;;;;;;46.55;17.48;;;;;;;3.33;84.19;100164.34;4953503;28;20039;-88
2022/12/03 04:35:53;;;;;;;43.80;17.17;;;;;;;3.37;84.15;100163.25;4941121;28;20070;-89
2022/12/03 04:38:20;;;;;;;44.10;16.92;;;;;;;3.40;84.36;100171.81;4961172;28;20454;-88
2022/12/03 04:40:59;;;;;;;46.50;17.33;;;;;;;3.42;84.14;100169.97;4968691;28;20054;-89
2022/12/03 04:43:30;;;;;;;46.33;17.88;;;;;;;3.44;83.99;100152.34;4929195;28;20065;-90
2022/12/03 04:45:57;;;;;;;49.55;17.40;;;;;;;3.47;84.38;100162.69;4941765;28;20038;-89
2022/12/03 04:48:24;;;;;;;47.25;18.45;;;;;;;3.46;84.55;100163.63;4941092;28;20122;-89
2022/12/03 04:50:51;;;;;;;47.92;19.52;;;;;;;3.49;84.41;100170.50;4948387;28;20045;-89
2022/12/03 04:53:18;;;;;;;53.33;17.77;;;;;;;3.50;84.41;100166.91;4973444;28;20042;-89
2022/12/03 04:55:44;;;;;;;46.05;18.85;;;;;;;3.52;84.01;100172.09;4956748;28;20105;-88
2022/12/03 04:58:11;;;;;;;48.38;19.33;;;;;;;3.49;84.00;100170.50;4959304;28;20132;-89
2022/12/03 05:00:38;;;;;;;46.05;19.15;;;;;;;3.47;84.12;100169.72;4936913;28;20537;-90
2022/12/03 05:03:05;;;;;;;51.22;19.27;;;;;;;3.50;83.92;100166.06;4981413;28;20100;-89
2022/12/03 05:05:32;;;;;;;49.78;20.13;;;;;;;3.47;84.37;100170.56;4963186;28;20073;-89
2022/12/03 05:07:58;;;;;;;51.90;19.50;;;;;;;3.46;83.95;100168.88;4960185;28;20054;-89
2022/12/03 05:10:25;;;;;;;46.60;18.08;;;;;;;3.53;83.75;100165.91;4968815;28;20105;-89
2022/12/03 05:12:52;;;;;;;56.97;20.42;;;;;;;3.52;83.96;100161.59;4957660;28;20042;-88
2022/12/03 05:15:19;;;;;;;46.72;17.88;;;;;;;3.52;83.96;100159.81;4982330;28;20090;-88
2022/12/03 05:17:46;;;;;;;53.20;19.27;;;;;;;3.53;83.95;100161.50;4979750;28;20103;-88
2022/12/03 05:22:58;;;;;;;55.03;20.42;;;;;;;3.48;84.31;100169.63;4991019;28;20050;-88
2022/12/03 05:25:25;;;;;;;58.58;20.83;;;;;;;3.50;84.39;100166.91;4984123;28;20494;-88
2022/12/03 05:27:52;;;;;;;47.38;18.55;;;;;;;3.51;84.26;100167.75;4978491;28;20057;-88
2022/12/03 05:30:19;;;;;;;51.90;19.67;;;;;;;3.44;84.03;100157.59;5005906;28;20101;-88
2022/12/03 05:32:46;;;;;;;47.30;20.23;;;;;;;3.50;84.16;100161.66;4964054;28;20042;-89
2022/12/03 05:35:13;;;;;;;52.67;20.58;;;;;;;3.51;84.08;100160.75;4965081;28;20058;-88
2022/12/03 05:37:40;;;;;;;51.47;20.38;;;;;;;3.51;84.26;100158.13;4962573;28;20045;-88
2022/12/03 05:40:07;;;;;;;59.17;22.40;;;;;;;3.49;83.73;100149.47;4947108;28;20379;-88
2022/12/03 05:42:52;;;;;;;49.40;18.92;;;;;;;3.52;84.06;100149.31;4952819;28;20516;-88
2022/12/03 05:45:20;;;;;;;54.28;20.20;;;;;;;3.50;83.93;100145.91;4923764;28;20054;-89
2022/12/03 05:47:47;;;;;;;55.97;19.85;;;;;;;3.42;83.91;100141.09;4974511;28;20062;-89
2022/12/03 05:50:14;;;;;;;51.28;19.83;;;;;;;3.48;83.84;100138.13;4962646;28;20446;-88
2022/12/03 05:52:41;;;;;;;52.30;19.58;;;;;;;3.46;84.19;100137.38;4969893;28;20049;-89
2022/12/03 05:55:09;;;;;;;54.35;21.30;;;;;;;3.47;84.29;100138.22;4959555;28;20049;-89
2022/12/03 05:57:35;;;;;;;53.35;19.52;;;;;;;3.44;84.30;100141.84;4953173;28;20057;-89
2022/12/03 06:00:05;;;;;;;51.83;19.65;;;;;;;3.47;84.09;100143.47;4958063;28;20052;-89
2022/12/03 06:02:38;;;;;;;56.17;21.60;;;;;;;3.47;84.48;100139.06;4985470;28;20141;-89
2022/12/03 06:05:06;;;;;;;53.72;20.85;;;;;;;3.51;84.06;100144.13;4948331;28;20473;-89
2022/12/03 06:07:33;;;;;;;56.63;20.23;;;;;;;3.51;83.96;100139.75;4969876;28;20142;-88
2022/12/03 06:10:00;;;;;;;51.65;19.83;;;;;;;3.43;84.03;100137.50;4968518;28;20486;-89
2022/12/03 06:12:26;;;;;;;53.22;20.52;;;;;;;3.38;84.28;100139.53;4975358;28;20052;-89
2022/12/03 06:14:53;;;;;;;56.22;20.27;;;;;;;3.45;84.80;100147.94;4957681;28;20046;-88
2022/12/03 06:17:21;;;;;;;61.75;21.48;;;;;;;3.40;84.25;100150.81;4955312;28;20498;-89
2022/12/03 06:19:47;;;;;;;49.28;19.48;;;;;;;3.42;84.53;100132.38;4985073;28;20136;-89
2022/12/03 06:22:14;;;;;;;52.45;20.63;;;;;;;3.44;84.39;100141.84;4953808;28;20074;-88
2022/12/03 06:24:41;;;;;;;51.33;20.40;;;;;;;3.44;84.61;100138.38;4957765;28;20045;-88
2022/12/03 06:27:08;;;;;;;55.13;19.95;;;;;;;3.43;84.62;100126.16;4967355;28;20049;-88
2022/12/03 06:29:35;;;;;;;57.97;20.02;;;;;;;3.43;84.53;100132.25;4969220;28;20077;-88
2022/12/03 06:32:03;;;;;;;51.47;20.90;;;;;;;3.41;84.24;100125.41;4993305;28;20046;-89
2022/12/03 06:34:30;;;;;;;59.45;21.67;;;;;;;3.37;84.13;100122.09;4958634;28;20055;-88
2022/12/03 06:36:56;;;;;;;52.20;21.60;;;;;;;3.42;84.01;100124.50;4960008;28;20056;-89
2022/12/03 06:39:23;;;;;;;52.72;20.10;;;;;;;3.40;84.28;100123.72;4976399;28;20096;-88
2022/12/03 06:41:50;;;;;;;55.72;19.10;;;;;;;3.40;84.17;100121.09;4952830;28;20232;-89
2022/12/03 06:44:17;;;;;;;55.65;21.27;;;;;;;3.38;84.32;100112.44;4980386;28;20494;-88
2022/12/03 06:46:44;;;;;;;63.30;21.77;;;;;;;3.31;84.85;100125.06;4935034;28;20042;-88
2022/12/03 06:49:10;;;;;;;49.47;18.80;;;;;;;3.32;84.49;100123.28;4965872;28;20050;-89
2022/12/03 06:51:37;;;;;;;55.83;20.42;;;;;;;3.36;84.85;100137.94;4945443;28;20038;-89
2022/12/03 06:54:04;;;;;;;57.42;20.38;;;;;;;3.36;84.66;100127.44;4949671;28;20138;-88
2022/12/03 06:56:31;;;;;;;57.60;20.17;;;;;;;3.39;84.76;100140.41;4950205;28;20128;-88
2022/12/03 06:59:04;;;;;;;46.90;20.23;;;;;;;3.39;84.75;100154.38;4947923;28;20457;-90
2022/12/03 07:01:31;;;;;;;55.42;20.00;;;;;;;3.41;84.90;100157.78;4945232;28;20141;-89
2022/12/03 07:03:58;;;;;;;50.83;20.38;;;;;;;3.49;84.42;100154.75;4966177;28;20385;-89
2022/12/03 07:06:25;;;;;;;55.35;21.50;;;;;;;3.51;84.87;100158.13;4961571;28;20122;-88
2022/12/03 07:08:52;;;;;;;60.83;22.70;;;;;;;3.53;84.63;100152.78;4978516;28;20497;-89
2022/12/03 07:11:31;;;;;;;53.55;21.17;;;;;;;3.55;84.57;100149.13;4953805;28;20112;-88
2022/12/03 07:13:59;;;;;;;54.47;21.83;;;;;;;3.54;84.46;100146.63;4967763;28;20126;-89
2022/12/03 07:16:31;;;;;;;59.25;21.90;;;;;;;3.52;84.54;100145.84;4976552;28;20061;-89
2022/12/03 07:18:58;;;;;;;54.45;20.55;;;;;;;3.48;84.81;100142.53;4961390;28;20112;-89
2022/12/03 07:21:25;;;;;;;53.92;20.30;;;;;;;3.52;84.47;100148.47;4960627;28;20042;-87
2022/12/03 07:23:52;;;;;;;61.30;22.80;;;;;;;3.52;84.60;100158.97;4960024;28;20117;-88
2022/12/03 07:26:19;;;;;;;57.63;22.05;;;;;;;3.49;84.83;100157.38;4987215;28;20413;-89
2022/12/03 07:28:47;;;;;;;55.42;20.35;;;;;;;3.50;84.67;100153.78;4966157;28;20500;-88
2022/12/03 07:31:14;;;;;;;53.47;20.00;;;;;;;3.52;85.05;100162.44;4954904;28;20042;-89
2022/12/03 07:33:41;;;;;;;58.10;21.13;;;;;;;3.52;84.88;100154.56;4988107;28;20470;-88
2022/12/03 07:36:08;;;;;;;53.92;19.58;;;;;;;3.55;84.86;100161.44;4957369;28;20061;-88
2022/12/03 07:38:35;;;;;;;56.85;21.55;;;;;;;3.56;84.82;100161.34;4956109;28;20063;-89
2022/12/03 07:41:02;;;;;;;66.35;22.05;;;;;;;3.53;85.23;100163.28;4959091;28;20050;-88
2022/12/03 07:43:29;;;;;;;54.30;21.52;;;;;;;3.58;85.06;100161.25;4944590;28;20061;-89
2022/12/03 07:45:56;;;;;;;55.45;19.70;;;;;;;3.55;85.15;100158.81;4962324;28;20053;-89
2022/12/03 07:48:22;;;;;;;63.00;23.45;;;;;;;3.56;84.96;100161.34;4955226;28;20495;-88
2022/12/03 07:50:49;;;;;;;57.63;22.10;;;;;;;3.59;84.92;100153.31;4986265;28;20058;-88
2022/12/03 07:53:16;;;;;;;53.65;21.10;;;;;;;3.60;85.12;100152.38;4970894;28;20129;-89
2022/12/03 07:55:43;;;;;;;65.22;23.35;;;;;;;3.52;85.49;100145.84;4943930;28;20049;-89
2022/12/03 07:58:11;;;;;;;58.53;22.08;;;;;;;3.52;85.42;100141.44;4960900;28;20093;-88
2022/12/03 08:00:37;;;;;;;60.67;21.40;;;;;;;3.61;84.57;100148.81;4970800;28;20387;-89
2022/12/03 08:03:04;;;;;;;59.78;22.33;;;;;;;3.57;84.83;100134.16;4954972;28;20509;-89
2022/12/03 08:05:31;;;;;;;59.83;21.10;;;;;;;3.59;85.18;100132.31;4945131;28;20046;-88
2022/12/03 08:07:58;;;;;;;54.42;19.10;;;;;;;3.64;85.25;100137.31;4936645;28;20516;-89
2022/12/03 08:10:25;;;;;;;59.28;22.25;;;;;;;3.68;85.29;100141.44;4983494;28;20500;-90
2022/12/03 08:12:52;;;;;;;60.20;23.27;;;;;;;3.68;85.64;100136.19;4951103;28;20061;-89
2022/12/03 08:15:23;;;;;;;58.65;22.10;;;;;;;3.69;85.14;100130.88;4965358;28;20133;-89
2022/12/03 08:17:58;;;;;;;53.42;20.45;;;;;;;3.63;85.96;100131.19;4957607;28;20053;-83
2022/12/03 08:20:28;;;;;;;58.33;20.98;;;;;;;3.66;85.37;100133.66;4939896;28;20042;-86
2022/12/03 08:22:56;;;;;;;58.00;21.52;;;;;;;3.66;85.07;100131.03;4966995;28;20080;-86
2022/12/03 08:25:28;;;;;;;62.13;20.98;;;;;;;3.62;85.84;100132.13;4972301;28;20046;-85
2022/12/03 08:28:15;;;;;;;59.80;20.67;;;;;;;3.63;85.42;100138.22;4979927;28;20062;-85
2022/12/03 08:30:43;;;;;;;68.82;24.45;;;;;;;3.65;85.33;100145.09;4974307;28;20100;-85
2022/12/03 08:33:21;;;;;;;63.95;22.42;;;;;;;3.59;85.58;100140.19;4986292;28;20101;-84
2022/12/03 08:35:52;;;;;;;55.00;19.85;;;;;;;3.65;85.82;100142.44;4934732;28;20084;-85
2022/12/03 08:38:21;;;;;;;63.00;22.98;;;;;;;3.67;85.59;100145.00;4992478;28;20452;-85
2022/12/03 08:40:50;;;;;;;61.70;23.25;;;;;;;3.68;85.31;100141.44;4977921;28;20052;-86
2022/12/03 08:43:27;;;;;;;59.13;22.77;;;;;;;3.72;85.54;100148.22;4956657;28;20061;-85
2022/12/03 08:45:55;;;;;;;63.88;22.02;;;;;;;3.77;85.76;100145.34;4954938;28;20049;-86
2022/12/03 08:48:37;;;;;;;65.45;22.40;;;;;;;3.70;85.70;100136.97;4969528;28;20126;-86
2022/12/03 08:51:26;;;;;;;65.65;23.48;;;;;;;3.65;85.57;100142.44;4967923;28;20048;-85
2022/12/03 08:53:58;;;;;;;59.72;21.75;;;;;;;3.69;85.69;100143.16;4964220;28;20049;-85
2022/12/03 08:56:29;;;;;;;73.00;23.83;;;;;;;3.67;86.04;100139.75;4979943;28;20053;-85
2022/12/03 08:59:05;;;;;;;63.97;23.30;;;;;;;3.67;85.68;100135.34;4986287;28;20108;-86
2022/12/03 09:01:42;;;;;;;72.60;24.48;;;;;;;3.58;86.62;100138.47;4973253;28;20050;-86
2022/12/03 09:04:35;;;;;;;66.57;23.77;;;;;;;3.45;87.10;100132.19;4428980;28;15069108;-86
2022/12/03 09:07:02;;;;;;;70.20;24.08;;;;;;;3.58;86.30;100135.84;4936364;28;20533;-86
2022/12/03 09:09:29;;;;;;;65.00;23.88;;;;;;;3.65;86.71;100144.25;4986710;28;20053;-86
2022/12/03 09:11:55;;;;;;;68.20;23.35;;;;;;;3.69;86.44;100130.03;4987901;28;20104;-86
2022/12/03 09:14:22;;;;;;;67.18;23.13;;;;;;;3.71;86.42;100136.00;4976006;28;20038;-86
2022/12/03 09:16:54;;;;;;;65.40;23.38;;;;;;;3.73;86.20;100136.78;4974883;28;20485;-86
2022/12/03 09:19:22;;;;;;;67.50;24.40;;;;;;;3.76;86.14;100141.00;4977072;28;20105;-86
2022/12/03 09:21:49;;;;;;;76.47;23.55;;;;;;;3.72;86.28;100136.88;4978814;28;20050;-85
2022/12/03 09:24:15;;;;;;;72.57;23.67;;;;;;;3.74;85.86;100127.13;4983657;28;20367;-85
2022/12/03 09:26:42;;;;;;;69.10;23.33;;;;;;;3.73;86.29;100128.06;4952504;28;20061;-84
2022/12/03 09:29:09;;;;;;;73.30;24.23;;;;;;;3.70;86.64;100129.91;4978371;28;20414;-84
2022/12/03 09:31:39;;;;;;;71.15;24.02;;;;;;;3.75;86.58;100132.28;4984204;28;20047;-86
2022/12/03 09:34:06;;;;;;;67.95;24.42;;;;;;;3.77;86.64;100133.06;4965910;28;20050;-85
2022/12/03 09:36:33;;;;;;;61.17;22.25;;;;;;;3.80;86.31;100132.88;4988256;28;20055;-85
2022/12/03 09:39:00;;;;;;;65.93;22.75;;;;;;;3.84;86.25;100125.66;4977177;28;20058;-85
2022/12/03 09:41:26;;;;;;;64.43;23.23;;;;;;;3.84;86.34;100126.53;4976753;28;20042;-86
2022/12/03 09:43:53;;;;;;;64.28;23.85;;;;;;;3.83;86.42;100124.81;4937145;28;20748;-86
2022/12/03 09:46:43;;;;;;;68.53;24.70;;;;;;;3.84;86.34;100121.28;4942491;28;20043;-86
2022/12/03 09:49:10;;;;;;;62.25;23.38;;;;;;;3.87;86.50;100120.28;4961137;28;20039;-85
2022/12/03 09:51:42;;;;;;;68.43;23.65;;;;;;;3.92;86.25;100115.59;4969503;28;20108;-85
2022/12/03 09:54:17;;;;;;;71.88;24.10;;;;;;;3.86;86.59;100115.94;4974199;28;20050;-84
2022/12/03 09:56:44;;;;;;;65.13;23.27;;;;;;;3.90;86.20;100120.09;4964463;28;20050;-85
2022/12/03 09:59:14;;;;;;;58.53;21.95;;;;;;;3.90;85.91;100114.84;4966460;28;20042;-85
2022/12/03 10:01:41;;;;;;;66.85;21.90;;;;;;;3.91;86.38;100113.88;4969509;28;20069;-84
2022/12/03 10:04:08;;;;;;;60.72;22.90;;;;;;;3.89;86.71;100106.13;4971098;28;20121;-84
2022/12/03 10:06:35;;;;;;;65.95;23.70;;;;;;;3.86;86.79;100106.25;4940351;28;20128;-84
2022/12/03 10:09:08;;;;;;;64.47;21.42;;;;;;;3.91;86.50;100113.88;4977336;28;20060;-85
2022/12/03 10:11:35;;;;;;;64.20;23.25;;;;;;;3.94;86.57;100112.88;4953107;28;20054;-85
2022/12/03 10:14:02;;;;;;;66.10;23.23;;;;;;;3.94;86.34;100102.34;4937105;28;20038;-85
2022/12/03 10:16:29;;;;;;;63.85;22.77;;;;;;;3.95;86.66;100101.44;4969818;28;20076;-82
2022/12/03 10:18:58;;;;;;;55.95;22.15;;;;;;;3.98;86.46;100101.25;4976090;28;20594;-87
2022/12/03 10:21:31;;;;;;;64.85;22.10;;;;;;;4.00;86.41;100099.41;4983803;28;20146;-86
2022/12/03 10:24:18;;;;;;;61.72;21.63;;;;;;;3.98;86.35;100093.38;4932671;28;20502;-86
2022/12/03 10:26:46;;;;;;;56.97;20.83;;;;;;;3.94;86.15;100084.81;4940747;28;20052;-86
2022/12/03 10:29:20;;;;;;;62.78;22.17;;;;;;;3.97;86.17;100084.66;4988722;28;20054;-87
2022/12/03 10:32:02;;;;;;;61.13;23.75;;;;;;;3.96;86.62;100082.09;4981303;28;20506;-86
2022/12/03 10:34:34;;;;;;;58.33;20.75;;;;;;;3.99;86.65;100081.94;4941222;28;20414;-86
2022/12/03 10:37:13;;;;;;;55.05;21.02;;;;;;;4.00;86.41;100065.25;4956267;28;20047;-86
2022/12/03 10:39:52;;;;;;;61.13;21.65;;;;;;;3.95;86.83;100062.03;5003124;28;20053;-86
2022/12/03 10:42:23;;;;;;;65.50;23.10;;;;;;;4.05;86.40;100071.91;4947541;28;22656;-86
2022/12/03 10:45:08;;;;;;;57.22;20.63;;;;;;;3.95;87.19;100056.78;4986460;28;20490;-86
2022/12/03 10:47:35;;;;;;;60.72;22.50;;;;;;;3.92;87.34;100049.91;4972834;28;20050;-87
2022/12/03 10:50:04;;;;;;;61.97;22.90;;;;;;;3.99;87.03;100053.88;4973764;28;20356;-84
2022/12/03 10:52:31;;;;;;;59.60;22.17;;;;;;;4.04;86.84;100050.97;4972801;28;20046;-85
2022/12/03 10:54:58;;;;;;;52.70;20.67;;;;;;;4.02;86.65;100050.22;4962174;28;20088;-84
2022/12/03 10:57:25;;;;;;;59.83;22.60;;;;;;;4.02;86.98;100050.22;4969778;28;20339;-83
2022/12/03 10:59:52;;;;;;;54.00;21.85;;;;;;;3.94;87.16;100045.41;4976373;28;20038;-85
2022/12/03 11:02:21;;;;;;;61.45;21.23;;;;;;;3.97;86.59;100042.63;4970487;28;20046;-85
2022/12/03 11:04:48;;;;;;;54.60;22.55;;;;;;;4.04;86.54;100050.97;4968083;28;20402;-84
2022/12/03 11:07:18;;;;;;;57.55;20.02;;;;;;;4.06;86.47;100043.84;4989195;28;20056;-84
2022/12/03 11:09:49;;;;;;;55.70;20.63;;;;;;;4.05;86.63;100050.91;4986976;28;20042;-85
2022/12/03 11:12:20;;;;;;;47.13;19.35;;;;;;;4.05;86.63;100044.81;4981509;28;20089;-85
2022/12/03 11:14:49;;;;;;;57.42;20.98;;;;;;;4.09;86.64;100049.78;4964521;28;20079;-84
2022/12/03 11:17:40;;;;;;;51.08;18.85;;;;;;;4.10;86.54;100042.75;4984731;28;21101;-84
2022/12/03 11:20:50;;;;;;;47.17;18.42;;;;;;;4.15;86.41;100043.34;4970825;28;20095;-85
2022/12/03 11:23:43;;;;;;;44.05;18.02;;;;;;;4.14;85.41;100039.84;4892430;28;20410;-83
2022/12/03 11:26:14;;;;;;;41.38;18.65;;;;;;;4.13;85.65;100038.16;4990185;28;20046;-85
2022/12/03 11:28:45;;;;;;;50.13;19.23;;;;;;;4.12;86.25;100030.34;4954617;28;20046;-85
2022/12/03 11:31:44;;;;;;;46.40;19.10;;;;;;;4.10;86.35;100024.38;4964472;28;20281;-85
2022/12/03 11:34:18;;;;;;;46.28;17.67;;;;;;;4.17;86.13;100027.44;4949292;28;20046;-85
2022/12/03 11:37:09;;;;;;;48.28;19.00;;;;;;;4.06;85.92;100028.09;4982544;28;20044;-84
2022/12/03 11:39:48;;;;;;;47.42;18.17;;;;;;;4.13;85.37;100032.06;4957249;28;20405;-85
2022/12/03 11:42:27;;;;;;;41.33;16.67;;;;;;;4.16;85.38;100023.16;4984119;28;20037;-86
2022/12/03 11:45:03;;;;;;;45.25;18.08;;;;;;;4.21;85.95;100024.56;4940414;28;20054;-84